Time;durP1;ratioP1;P1;durP2;ratioP2;P2;SDS_P1;SDS_P2;PMS_P1;PMS_P2;Temp;Humidity;BMP_temperature;BMP_pressure;BME280_temperature;BME280_humidity;BME280_pressure;Samples;Min_cycle;Max_cycle;Signal;HPM_P1;HPM_P2
2021/03/19 00:02:02;;;;;;;6.27;4.80;;;1.50;99.90;;;;;;4965254;28;20466;-93
2021/03/19 00:04:29;;;;;;;6.80;4.90;;;;;;;;;;4951419;28;21020;-90
2021/03/19 00:06:56;;;;;;;7.20;5.30;;;;;;;;;;4954048;28;20459;-93
2021/03/19 00:09:24;;;;;;;8.03;5.00;;;1.70;99.90;;;;;;4954379;28;20455;-92
2021/03/19 00:11:50;;;;;;;8.50;5.33;;;1.70;99.90;;;;;;4952809;28;20514;-91
2021/03/19 00:14:17;;;;;;;6.50;4.97;;;;;;;;;;4953481;28;20458;-92
2021/03/19 00:16:43;;;;;;;7.10;5.20;;;;;;;;;;4953558;28;20549;-91
2021/03/19 00:19:10;;;;;;;9.20;5.13;;;1.40;99.90;;;;;;4954124;28;21020;-93
2021/03/19 00:21:37;;;;;;;5.90;4.53;;;;;;;;;;4954258;28;20450;-92
2021/03/19 00:24:04;;;;;;;6.17;5.00;;;1.30;99.90;;;;;;4953962;28;20459;-94
2021/03/19 00:26:31;;;;;;;6.70;5.53;;;1.40;99.90;;;;;;4952970;28;20862;-90
2021/03/19 00:28:58;;;;;;;7.13;5.40;;;0.90;99.90;;;;;;4953682;28;20501;-93
2021/03/19 00:31:25;;;;;;;8.87;6.10;;;;;;;;;;4953720;28;20483;-88
2021/03/19 00:33:51;;;;;;;5.40;4.80;;;1.40;99.90;;;;;;4954220;28;20436;-94
2021/03/19 00:36:18;;;;;;;6.97;5.87;;;;;;;;;;4953746;28;20455;-92
2021/03/19 00:38:44;;;;;;;7.03;5.87;;;1.80;99.90;;;;;;4953804;28;20444;-92
2021/03/19 00:41:10;;;;;;;7.87;5.77;;;;;;;;;;4952807;28;20447;-92
2021/03/19 00:43:38;;;;;;;8.97;7.87;;;1.40;99.90;;;;;;4953560;28;20451;-90
2021/03/19 00:46:05;;;;;;;6.30;5.30;;;1.90;99.90;;;;;;4953800;28;20448;-94
2021/03/19 00:48:31;;;;;;;8.37;5.97;;;1.30;99.90;;;;;;4951192;28;20478;-91
2021/03/19 00:50:57;;;;;;;10.23;6.40;;;1.60;99.90;;;;;;4953567;28;20495;-91
2021/03/19 00:53:23;;;;;;;7.80;6.30;;;1.40;99.90;;;;;;4962137;28;20466;-93
2021/03/19 00:55:51;;;;;;;11.23;6.40;;;1.30;99.90;;;;;;4958842;28;20848;-92
2021/03/19 00:58:18;;;;;;;9.33;6.17;;;1.50;99.90;;;;;;4955446;28;20467;-92
2021/03/19 01:00:45;;;;;;;7.90;6.30;;;1.30;99.90;;;;;;4954437;28;20447;-92
2021/03/19 01:03:12;;;;;;;12.90;7.70;;;;;;;;;;4954007;28;20478;-91
2021/03/19 01:05:40;;;;;;;8.50;6.20;;;1.50;99.90;;;;;;4953183;28;20988;-90
2021/03/19 01:08:08;;;;;;;9.27;6.80;;;1.40;99.90;;;;;;4953468;28;20448;-92
2021/03/19 01:10:37;;;;;;;10.53;6.40;;;1.30;99.90;;;;;;4952435;28;20460;-91
2021/03/19 01:13:03;;;;;;;11.10;6.70;;;1.20;99.90;;;;;;4953237;28;20451;-93
2021/03/19 01:15:31;;;;;;;8.30;5.97;;;1.20;99.90;;;;;;4953395;28;20494;-90
2021/03/19 01:17:58;;;;;;;8.07;5.40;;;1.20;99.90;;;;;;4952967;28;20457;-90
2021/03/19 01:20:26;;;;;;;10.77;6.00;;;1.30;99.90;;;;;;4957230;28;20597;-92
2021/03/19 01:22:53;;;;;;;10.53;5.90;;;1.00;99.90;;;;;;4953174;28;20780;-92
2021/03/19 01:25:21;;;;;;;7.80;6.13;;;0.50;99.90;;;;;;4951163;28;20953;-91
2021/03/19 01:27:47;;;;;;;8.00;6.50;;;;;;;;;;4953372;28;20803;-92
2021/03/19 01:30:16;;;;;;;10.63;7.10;;;1.10;99.90;;;;;;4952920;28;20467;-91
2021/03/19 01:32:43;;;;;;;10.10;6.47;;;1.00;99.90;;;;;;4952692;28;20494;-94
2021/03/19 01:35:13;;;;;;;8.17;6.00;;;0.80;99.90;;;;;;4953122;28;20459;-90
2021/03/19 01:37:39;;;;;;;7.37;6.30;;;1.00;99.90;;;;;;4952918;28;20451;-93
2021/03/19 01:40:08;;;;;;;8.23;6.27;;;0.90;99.90;;;;;;4952998;28;20462;-88
2021/03/19 01:42:34;;;;;;;7.80;6.57;;;1.00;99.90;;;;;;4952561;28;20462;-93
2021/03/19 01:45:46;;;;;;;8.23;6.73;;;0.90;99.90;;;;;;4953023;28;20456;-91
2021/03/19 01:48:50;;;;;;;7.27;5.50;;;0.90;99.90;;;;;;4952891;28;20512;-92
2021/03/19 01:51:54;;;;;;;10.17;6.87;;;0.90;99.90;;;;;;4953093;28;20488;-94
2021/03/19 01:54:57;;;;;;;8.40;6.70;;;0.90;99.90;;;;;;4953259;28;20520;-95
2021/03/19 01:58:00;;;;;;;8.23;6.30;;;0.80;99.90;;;;;;4952308;28;20463;-91
2021/03/19 02:01:04;;;;;;;11.23;6.80;;;0.80;99.90;;;;;;4958783;28;20455;-94
2021/03/19 02:04:07;;;;;;;9.73;6.70;;;0.60;99.90;;;;;;4952707;28;20997;-92
2021/03/19 02:07:11;;;;;;;11.90;6.93;;;0.80;99.90;;;;;;4953327;28;20793;-92
2021/03/19 02:10:14;;;;;;;8.07;6.47;;;0.70;99.90;;;;;;4953072;28;20456;-94
2021/03/19 02:13:18;;;;;;;9.23;7.37;;;0.90;99.90;;;;;;4958626;28;20498;-91
2021/03/19 02:16:33;;;;;;;12.00;7.70;;;0.60;99.90;;;;;;4952433;28;20479;-90
2021/03/19 02:19:36;;;;;;;10.60;6.60;;;0.40;99.90;;;;;;5031430;28;20439;-90
2021/03/19 02:22:40;;;;;;;15.80;7.17;;;0.60;99.90;;;;;;4952687;28;20459;-92
2021/03/19 02:25:43;;;;;;;8.13;7.00;;;0.50;99.90;;;;;;4952202;28;20857;-90
2021/03/19 02:28:43;;;;;;;10.50;7.03;;;0.70;99.90;;;;;;4952216;28;20590;-91
2021/03/19 02:31:12;;;;;;;9.00;7.07;;;0.30;99.90;;;;;;4984596;28;20833;-94
2021/03/19 02:33:44;;;;;;;10.93;7.30;;;0.40;99.90;;;;;;4952431;28;20466;-92
2021/03/19 02:36:14;;;;;;;11.13;7.83;;;0.30;99.90;;;;;;4953440;28;20446;-93
2021/03/19 02:38:40;;;;;;;10.47;7.50;;;0.40;99.90;;;;;;4955931;28;20448;-90
2021/03/19 02:41:06;;;;;;;10.53;7.07;;;;;;;;;;4952321;28;20942;-92
2021/03/19 02:43:33;;;;;;;10.73;8.00;;;0.20;99.90;;;;;;4955828;28;20451;-92
2021/03/19 02:45:59;;;;;;;11.97;7.53;;;;;;;;;;4949163;28;20447;-90
2021/03/19 02:48:26;;;;;;;11.57;7.73;;;;;;;;;;4955145;28;20454;-91
2021/03/19 02:50:53;;;;;;;9.63;7.43;;;0.30;99.90;;;;;;4955584;28;20477;-92
2021/03/19 02:53:22;;;;;;;15.70;7.90;;;0.40;99.90;;;;;;4955016;28;20436;-89
2021/03/19 02:55:50;;;;;;;9.60;7.53;;;0.60;99.90;;;;;;4953992;28;20455;-89
2021/03/19 02:58:16;;;;;;;12.17;7.93;;;0.70;99.90;;;;;;4954857;28;20462;-89
2021/03/19 03:00:43;;;;;;;10.30;6.83;;;0.10;99.90;;;;;;4955175;28;20451;-89
2021/03/19 03:03:10;;;;;;;12.27;8.00;;;;;;;;;;4954894;28;20540;-90
2021/03/19 03:05:37;;;;;;;9.37;7.37;;;;;;;;;;4958862;28;20500;-90
2021/03/19 03:08:05;;;;;;;13.20;8.20;;;0.50;99.90;;;;;;4954560;28;20467;-91
2021/03/19 03:10:34;;;;;;;9.70;6.40;;;0.60;99.90;;;;;;4950523;28;20462;-92
2021/03/19 03:13:00;;;;;;;10.80;7.70;;;0.30;99.90;;;;;;4954957;28;20494;-90
2021/03/19 03:15:27;;;;;;;9.40;7.13;;;0.30;99.90;;;;;;4954684;28;20501;-90
2021/03/19 03:17:54;;;;;;;10.00;6.97;;;0.70;99.90;;;;;;4955033;28;20451;-94
2021/03/19 03:20:25;;;;;;;11.47;7.00;;;0.50;99.90;;;;;;4954980;28;20436;-88
2021/03/19 03:22:51;;;;;;;7.90;6.47;;;;;;;;;;4954591;28;20806;-90
2021/03/19 03:25:20;;;;;;;8.43;6.83;;;0.40;99.90;;;;;;4953885;28;20463;-93
2021/03/19 03:27:48;;;;;;;10.20;6.83;;;0.60;99.90;;;;;;4954990;28;20466;-93
2021/03/19 03:30:19;;;;;;;7.13;6.33;;;0.40;99.90;;;;;;4954947;28;20497;-87
2021/03/19 03:32:49;;;;;;;9.50;7.10;;;0.40;99.90;;;;;;4953884;28;20497;-88
2021/03/19 03:35:20;;;;;;;7.80;6.43;;;0.50;99.90;;;;;;4949714;28;20447;-88
2021/03/19 03:37:47;;;;;;;11.90;7.70;;;;;;;;;;4953584;28;20455;-87
2021/03/19 03:40:27;;;;;;;9.63;7.90;;;0.60;99.90;;;;;;4952791;28;20454;-88
2021/03/19 03:42:57;;;;;;;12.57;8.87;;;0.60;99.90;;;;;;4950107;28;20481;-93
2021/03/19 03:45:27;;;;;;;9.97;7.83;;;0.60;99.90;;;;;;4953441;28;20439;-91
2021/03/19 03:47:56;;;;;;;11.83;8.30;;;0.60;99.90;;;;;;4953632;28;20463;-89
2021/03/19 03:50:26;;;;;;;11.97;8.63;;;0.80;99.90;;;;;;4954725;28;20498;-89
2021/03/19 03:52:54;;;;;;;10.00;8.63;;;0.80;99.90;;;;;;4943797;28;20529;-89
2021/03/19 03:55:22;;;;;;;11.90;8.93;;;0.40;99.90;;;;;;4953236;28;20486;-90
2021/03/19 03:57:51;;;;;;;15.07;9.33;;;0.70;99.90;;;;;;4954436;28;20447;-94
2021/03/19 04:00:25;;;;;;;9.73;8.53;;;0.70;99.90;;;;;;4954694;28;20436;-94
2021/03/19 04:02:51;;;;;;;11.13;9.50;;;2.00;99.90;;;;;;4954172;28;20973;-90
2021/03/19 04:05:26;;;;;;;11.77;9.07;;;0.80;99.90;;;;;;4953992;28;20455;-91
2021/03/19 04:07:56;;;;;;;11.33;8.60;;;;;;;;;;4928477;28;20439;-88
2021/03/19 04:10:26;;;;;;;11.63;8.43;;;0.90;99.90;;;;;;4953356;28;20443;-93
2021/03/19 04:13:05;;;;;;;16.97;9.77;;;0.70;99.90;;;;;;4954433;28;20499;-94
2021/03/19 04:15:32;;;;;;;10.80;8.63;;;0.70;99.90;;;;;;4954326;28;20482;-92
2021/03/19 04:18:00;;;;;;;9.47;8.13;;;0.70;99.90;;;;;;4953898;28;20508;-93
2021/03/19 04:20:27;;;;;;;8.53;7.40;;;0.90;99.90;;;;;;4954392;28;20447;-91
2021/03/19 04:22:55;;;;;;;14.57;8.97;;;0.60;99.90;;;;;;4954354;28;20443;-91
2021/03/19 04:25:22;;;;;;;13.13;9.87;;;1.10;99.90;;;;;;4935973;28;20463;-91
2021/03/19 04:27:52;;;;;;;11.73;8.90;;;0.90;99.90;;;;;;4954436;28;20465;-91
2021/03/19 04:30:21;;;;;;;11.33;8.70;;;1.10;99.90;;;;;;4952379;28;20466;-91
2021/03/19 04:32:48;;;;;;;13.20;8.97;;;1.00;99.90;;;;;;4952231;28;20495;-93
2021/03/19 04:35:16;;;;;;;12.10;9.40;;;0.90;99.90;;;;;;4953927;28;20513;-90
2021/03/19 04:37:42;;;;;;;10.33;7.97;;;;;;;;;;4953455;28;20448;-92
2021/03/19 04:40:10;;;;;;;15.33;9.67;;;1.00;99.90;;;;;;4927774;29;20518;-94
2021/03/19 04:42:37;;;;;;;13.90;9.60;;;0.90;99.90;;;;;;4952961;29;20439;-92
2021/03/19 04:45:05;;;;;;;10.87;9.00;;;1.00;99.90;;;;;;4953865;28;20447;-92
2021/03/19 04:47:31;;;;;;;11.87;9.63;;;;;;;;;;4953528;28;20534;-94
2021/03/19 04:49:58;;;;;;;13.60;9.60;;;1.10;99.90;;;;;;4953704;28;20439;-93
2021/03/19 04:52:25;;;;;;;10.97;8.77;;;;;;;;;;4953621;28;20506;-91
2021/03/19 04:54:54;;;;;;;11.80;9.00;;;0.90;99.90;;;;;;4953615;28;20447;-92
2021/03/19 04:57:21;;;;;;;12.90;10.60;;;1.00;99.90;;;;;;4953238;28;20451;-94
2021/03/19 04:59:55;;;;;;;16.33;8.93;;;;;;;;;;4953671;28;20938;-91
2021/03/19 05:02:34;;;;;;;12.67;9.37;;;0.90;99.90;;;;;;4953851;28;20478;-93
2021/03/19 05:05:01;;;;;;;11.60;8.83;;;;;;;;;;4953871;28;20455;-92
2021/03/19 05:07:30;;;;;;;10.47;8.97;;;0.90;99.90;;;;;;4952564;28;20952;-88
2021/03/19 05:10:01;;;;;;;13.73;9.70;;;;;;;;;;4952456;28;20451;-88
2021/03/19 05:12:30;;;;;;;14.73;10.03;;;;;;;;;;4951087;28;20498;-88
2021/03/19 05:14:59;;;;;;;11.70;9.37;;;;;;;;;;4953333;28;20905;-89
2021/03/19 05:17:26;;;;;;;12.63;9.70;;;;;;;;;;4953227;28;20796;-92
2021/03/19 05:19:55;;;;;;;14.03;9.93;;;1.00;99.90;;;;;;4954451;28;20452;-92
2021/03/19 05:22:24;;;;;;;10.80;9.30;;;;;;;;;;4953507;28;20455;-92
2021/03/19 05:24:51;;;;;;;19.97;17.83;;;;;;;;;;4937948;28;20451;-89
2021/03/19 05:27:18;;;;;;;12.53;10.33;;;;;;;;;;4952736;28;20452;-94
2021/03/19 05:29:44;;;;;;;15.47;11.60;;;;;;;;;;4953182;28;20926;-90
2021/03/19 05:32:12;;;;;;;9.37;7.70;;;0.90;99.90;;;;;;4952920;28;20533;-91
2021/03/19 05:34:38;;;;;;;14.30;8.77;;;;;;;;;;4953349;28;20474;-93
2021/03/19 05:37:05;;;;;;;12.23;10.07;;;;;;;;;;4952883;28;20447;-88
2021/03/19 05:39:32;;;;;;;12.83;9.73;;;;;;;;;;4953052;28;20466;-91
2021/03/19 05:41:58;;;;;;;14.23;8.90;;;1.00;99.90;;;;;;4952239;28;20458;-91
2021/03/19 05:44:27;;;;;;;10.00;6.53;;;1.10;99.90;;;;;;4950359;28;20450;-94
2021/03/19 05:46:55;;;;;;;9.80;7.83;;;1.00;99.90;;;;;;4952686;28;20537;-92
2021/03/19 05:49:26;;;;;;;12.80;9.50;;;1.20;99.90;;;;;;4953530;28;20451;-91
2021/03/19 05:51:54;;;;;;;9.37;8.00;;;1.10;99.90;;;;;;4951950;28;20495;-88
2021/03/19 05:54:29;;;;;;;10.20;7.30;;;0.80;99.90;;;;;;4952058;28;20452;-89
2021/03/19 05:57:18;;;;;;;12.07;8.40;;;1.00;99.90;;;;;;4951374;28;20481;-89
2021/03/19 05:59:56;;;;;;;10.50;8.30;;;1.20;99.90;;;;;;4951298;28;20768;-87
2021/03/19 06:02:30;;;;;;;11.63;8.20;;;1.00;99.90;;;;;;4952474;28;20451;-90
2021/03/19 06:05:13;;;;;;;10.97;7.70;;;1.00;99.90;;;;;;4951657;28;20520;-88
2021/03/19 06:07:44;;;;;;;12.20;8.63;;;1.00;99.90;;;;;;4949916;28;20989;-87
2021/03/19 06:10:29;;;;;;;11.70;9.07;;;1.10;99.90;;;;;;4947097;28;20447;-87
2021/03/19 06:13:12;;;;;;;15.00;9.27;;;1.40;99.90;;;;;;4947474;28;20502;-90
2021/03/19 06:15:43;;;;;;;15.30;9.57;;;1.30;99.90;;;;;;4951813;28;20483;-89
2021/03/19 06:18:37;;;;;;;13.93;10.60;;;1.10;99.90;;;;;;4947172;28;20454;-87
2021/03/19 06:21:13;;;;;;;16.50;8.63;;;1.30;99.90;;;;;;4951518;28;20451;-89
2021/03/19 06:24:01;;;;;;;11.03;8.77;;;1.40;99.90;;;;;;4952361;28;20458;-88
2021/03/19 06:26:34;;;;;;;13.20;9.67;;;1.30;99.90;;;;;;4945591;28;20492;-86
2021/03/19 06:29:12;;;;;;;12.87;10.57;;;1.40;99.90;;;;;;4952634;28;20453;-91
2021/03/19 06:31:40;;;;;;;14.10;10.20;;;;;;;;;;4951523;28;20490;-90
2021/03/19 06:34:11;;;;;;;12.63;10.27;;;1.40;99.90;;;;;;4946610;28;20530;-91
2021/03/19 06:36:58;;;;;;;14.13;10.20;;;1.40;99.90;;;;;;4954243;28;20447;-92
2021/03/19 06:39:30;;;;;;;11.20;9.50;;;1.40;99.90;;;;;;4953987;28;20531;-90
2021/03/19 06:42:28;;;;;;;17.43;11.10;;;1.20;99.90;;;;;;4951977;28;20450;-91
2021/03/19 06:45:04;;;;;;;14.00;9.73;;;1.40;99.90;;;;;;4956368;28;20459;-89
2021/03/19 06:47:38;;;;;;;14.77;10.73;;;1.50;99.90;;;;;;4953125;28;20477;-89
2021/03/19 06:50:05;;;;;;;14.60;10.77;;;1.30;99.90;;;;;;4953608;28;20443;-94
2021/03/19 06:52:34;;;;;;;14.83;10.90;;;1.50;99.90;;;;;;4952473;28;20486;-90
2021/03/19 06:55:03;;;;;;;15.30;11.53;;;1.60;99.90;;;;;;4951752;28;20459;-90
2021/03/19 06:57:44;;;;;;;12.83;10.90;;;1.60;99.90;;;;;;4951256;28;20462;-91
2021/03/19 07:00:21;;;;;;;13.83;11.10;;;1.40;99.90;;;;;;4952539;28;20500;-87
2021/03/19 07:02:57;;;;;;;12.63;10.07;;;2.50;99.90;;;;;;4950360;28;20451;-90
2021/03/19 07:05:44;;;;;;;14.73;10.90;;;1.60;99.90;;;;;;4952504;28;20435;-89
2021/03/19 07:08:21;;;;;;;15.10;11.63;;;1.60;99.90;;;;;;4962062;28;20455;-89
2021/03/19 07:11:00;;;;;;;20.03;12.47;;;1.90;99.90;;;;;;4951607;28;20447;-87
2021/03/19 07:13:56;;;;;;;14.40;11.77;;;1.80;99.90;;;;;;4951831;28;20458;-90
2021/03/19 07:16:28;;;;;;;16.87;12.60;;;1.80;99.90;;;;;;4954983;28;20495;-91
2021/03/19 07:19:23;;;;;;;15.93;12.17;;;1.70;99.90;;;;;;4952502;28;20447;-88
2021/03/19 07:22:20;;;;;;;17.63;11.60;;;1.90;99.90;;;;;;4945289;28;20459;-90
2021/03/19 07:25:15;;;;;;;13.43;11.30;;;1.90;99.90;;;;;;4918031;28;20475;-91
2021/03/19 07:27:55;;;;;;;14.33;11.37;;;2.20;99.90;;;;;;4917899;28;20457;-88
2021/03/19 07:30:28;;;;;;;16.30;11.87;;;1.90;99.90;;;;;;4916894;28;20453;-92
2021/03/19 07:33:32;;;;;;;15.27;12.03;;;2.00;99.90;;;;;;4917115;28;20504;-94
2021/03/19 07:36:10;;;;;;;15.00;12.03;;;2.00;99.90;;;;;;4922155;28;20448;-91
2021/03/19 07:39:06;;;;;;;16.87;11.87;;;2.00;99.90;;;;;;4951387;28;20489;-93
2021/03/19 07:41:45;;;;;;;15.43;12.03;;;2.00;99.90;;;;;;4954374;28;20462;-93
2021/03/19 07:44:26;;;;;;;17.57;12.37;;;2.10;99.90;;;;;;4960461;28;20520;-89
2021/03/19 07:47:05;;;;;;;17.50;12.30;;;2.20;99.90;;;;;;4956203;28;20517;-90
2021/03/19 07:50:03;;;;;;;16.07;12.23;;;2.10;99.90;;;;;;4962622;28;20470;-88
2021/03/19 07:52:47;;;;;;;19.33;12.60;;;2.10;99.90;;;;;;4959839;28;20548;-92
2021/03/19 07:55:18;;;;;;;14.50;11.17;;;2.40;99.90;;;;;;4956716;28;20505;-91
2021/03/19 07:57:53;;;;;;;16.60;12.20;;;2.70;99.90;;;;;;4957411;28;20470;-91
2021/03/19 08:00:22;;;;;;;17.60;13.77;;;2.30;99.90;;;;;;4962327;28;20524;-89
2021/03/19 08:03:06;;;;;;;20.60;14.27;;;2.30;99.90;;;;;;4959601;28;20447;-93
2021/03/19 08:05:40;;;;;;;16.37;12.63;;;2.20;99.90;;;;;;4968672;28;20455;-89
2021/03/19 08:08:14;;;;;;;17.47;11.53;;;3.10;99.90;;;;;;4967116;28;20514;-89
2021/03/19 08:10:51;;;;;;;17.37;12.23;;;2.40;99.90;;;;;;4968156;28;20458;-89
2021/03/19 08:13:32;;;;;;;17.20;11.67;;;2.70;99.90;;;;;;4968006;28;20494;-91
2021/03/19 08:16:06;;;;;;;13.50;10.80;;;4.90;99.90;;;;;;4958362;28;20483;-89
2021/03/19 08:18:39;;;;;;;12.33;9.70;;;3.00;99.90;;;;;;4952387;28;20462;-85
2021/03/19 08:21:23;;;;;;;13.40;9.80;;;2.90;99.90;;;;;;4935867;28;20459;-84
2021/03/19 08:24:03;;;;;;;10.93;8.40;;;2.80;99.90;;;;;;4954140;28;20463;-88
2021/03/19 08:26:39;;;;;;;11.50;9.07;;;2.80;99.90;;;;;;4957054;28;20435;-87
2021/03/19 08:29:19;;;;;;;10.20;8.03;;;3.10;99.90;;;;;;4957359;28;20447;-92
2021/03/19 08:31:54;;;;;;;9.07;7.40;;;2.80;99.90;;;;;;4966897;28;20498;-88
2021/03/19 08:34:28;;;;;;;11.03;8.00;;;3.30;99.90;;;;;;5014537;28;20455;-89
2021/03/19 08:36:55;;;;;;;12.23;9.20;;;3.30;99.90;;;;;;5015323;28;20458;-92
2021/03/19 08:39:33;;;;;;;11.37;9.60;;;3.10;99.90;;;;;;5015298;28;20492;-91
2021/03/19 08:42:04;;;;;;;11.10;8.47;;;3.20;99.90;;;;;;5016028;28;20515;-90
2021/03/19 08:44:36;;;;;;;12.90;9.03;;;2.90;99.90;;;;;;5017338;28;20444;-92
2021/03/19 08:47:20;;;;;;;11.67;8.97;;;3.10;99.90;;;;;;4946828;29;20450;-92
2021/03/19 08:49:49;;;;;;;13.57;10.00;;;2.70;99.90;;;;;;4942420;29;20492;-93
2021/03/19 08:52:34;;;;;;;14.53;10.27;;;2.70;99.90;;;;;;4915549;29;20499;-92
2021/03/19 08:55:27;;;;;;;15.50;10.10;;;2.90;99.90;;;;;;4939019;29;20508;-90
2021/03/19 08:57:56;;;;;;;14.83;9.90;;;3.10;99.90;;;;;;4942173;29;20459;-90
2021/03/19 09:00:50;;;;;;;12.67;9.23;;;2.40;99.90;;;;;;4906301;29;20470;-89
2021/03/19 09:04:01;;;;;;;12.30;8.87;;;3.00;99.90;;;;;;4898307;29;20450;-89
2021/03/19 09:06:32;;;;;;;11.90;9.13;;;3.00;99.90;;;;;;4899478;29;20441;-91
2021/03/19 09:09:37;;;;;;;11.80;8.53;;;2.80;99.90;;;;;;4904809;29;20464;-90
2021/03/19 09:12:17;;;;;;;13.50;8.13;;;3.90;99.90;;;;;;4945270;28;20490;-90
2021/03/19 09:14:50;;;;;;;13.47;9.27;;;2.60;99.90;;;;;;4937223;28;20873;-91
2021/03/19 09:17:57;;;;;;;12.83;8.90;;;2.70;99.90;;;;;;4926235;28;20463;-91
2021/03/19 09:20:31;;;;;;;15.33;9.27;;;2.50;99.90;;;;;;4915656;28;20501;-91
2021/03/19 09:23:23;;;;;;;14.20;9.03;;;2.70;99.90;;;;;;4934058;28;20641;-92
2021/03/19 09:25:55;;;;;;;12.80;9.47;;;3.00;99.90;;;;;;4936040;28;20452;-93
2021/03/19 09:28:55;;;;;;;13.80;9.33;;;3.00;99.90;;;;;;4934780;28;20451;-89
2021/03/19 09:31:35;;;;;;;14.87;11.23;;;2.90;99.90;;;;;;4935590;28;20451;-91
2021/03/19 09:34:18;;;;;;;15.10;11.07;;;3.10;99.90;;;;;;4930896;28;20954;-90
2021/03/19 09:36:55;;;;;;;16.10;11.97;;;3.50;99.90;;;;;;4935184;28;20577;-90
2021/03/19 09:39:55;;;;;;;15.20;11.17;;;4.50;99.90;;;;;;4939060;28;20489;-90
2021/03/19 09:42:56;;;;;;;15.20;10.10;;;3.80;99.90;;;;;;4953342;28;20446;-90
2021/03/19 09:46:01;;;;;;;14.10;10.53;;;3.70;99.90;;;;;;4919123;28;20569;-94
2021/03/19 09:48:31;;;;;;;15.30;11.77;;;3.70;99.90;;;;;;4916713;28;20452;-93
2021/03/19 09:51:30;;;;;;;13.67;10.13;;;3.50;99.90;;;;;;4989241;28;21462;-90
2021/03/19 09:53:56;;;;;;;11.30;9.10;;;3.40;99.90;;;;;;4993952;28;20453;-90
2021/03/19 09:56:30;;;;;;;12.80;9.63;;;3.20;99.90;;;;;;4990985;28;20446;-89
2021/03/19 09:59:07;;;;;;;12.10;9.80;;;3.10;99.90;;;;;;4945566;28;20532;-91
2021/03/19 10:01:41;;;;;;;14.30;10.30;;;3.20;99.90;;;;;;4984383;28;20520;-90
2021/03/19 10:04:10;;;;;;;20.40;10.90;;;3.00;99.90;;;;;;4983722;28;20449;-91
2021/03/19 10:06:46;;;;;;;13.77;10.70;;;2.60;99.90;;;;;;4983320;28;20444;-87
2021/03/19 10:09:18;;;;;;;14.00;10.20;;;2.70;99.90;;;;;;4988393;28;20532;-88
2021/03/19 10:12:04;;;;;;;13.90;11.00;;;2.60;99.90;;;;;;4990313;28;21102;-88
2021/03/19 10:14:34;;;;;;;13.60;9.93;;;2.30;99.90;;;;;;4986518;28;20500;-89
2021/03/19 10:17:23;;;;;;;13.30;10.90;;;3.10;99.90;;;;;;4921912;28;20524;-88
2021/03/19 10:19:52;;;;;;;14.13;10.77;;;4.10;99.90;;;;;;4933952;28;21069;-87
2021/03/19 10:22:36;;;;;;;14.40;9.30;;;4.90;99.90;;;;;;4914186;28;20456;-88
2021/03/19 10:25:18;;;;;;;10.97;8.97;;;4.90;99.90;;;;;;4922099;28;20864;-87
2021/03/19 10:27:46;;;;;;;11.20;8.80;;;4.70;99.90;;;;;;4933039;28;20456;-89
2021/03/19 10:30:19;;;;;;;8.80;7.50;;;4.40;99.90;;;;;;4932802;28;20456;-88
2021/03/19 10:32:46;;;;;;;8.43;6.90;;;4.70;99.90;;;;;;4933370;28;20619;-90
2021/03/19 10:35:19;;;;;;;9.50;7.83;;;4.10;99.90;;;;;;4933306;28;20459;-89
2021/03/19 10:37:52;;;;;;;9.00;7.17;;;4.50;99.90;;;;;;4932706;28;20455;-87
2021/03/19 10:40:28;;;;;;;9.20;7.47;;;4.40;99.90;;;;;;4932189;28;20860;-88
2021/03/19 10:43:01;;;;;;;9.37;8.30;;;4.30;99.90;;;;;;4933236;28;20950;-91
2021/03/19 10:45:37;;;;;;;8.83;7.70;;;3.50;99.90;;;;;;4933309;28;20458;-89
2021/03/19 10:48:19;;;;;;;10.13;8.37;;;3.70;99.90;;;;;;4916071;28;20480;-88
2021/03/19 10:51:04;;;;;;;11.73;8.50;;;4.10;99.90;;;;;;4914338;28;20453;-89
2021/03/19 10:53:50;;;;;;;9.50;7.60;;;4.50;99.90;;;;;;4915096;28;20503;-92
2021/03/19 10:56:18;;;;;;;12.80;7.10;;;4.60;99.90;;;;;;4928487;28;20448;-89
2021/03/19 10:58:47;;;;;;;9.53;7.10;;;4.10;99.90;;;;;;4938293;28;20485;-91
2021/03/19 11:01:29;;;;;;;8.90;7.63;;;4.30;99.90;;;;;;4918724;28;20472;-91
2021/03/19 11:03:56;;;;;;;8.07;6.37;;;;;;;;;;4926304;29;20476;-93
2021/03/19 11:06:35;;;;;;;7.50;6.30;;;4.90;99.90;;;;;;4945952;28;20460;-91
2021/03/19 11:09:08;;;;;;;8.33;6.83;;;5.30;99.90;;;;;;4942970;28;20452;-90
2021/03/19 11:11:40;;;;;;;8.17;6.23;;;3.80;99.90;;;;;;4936583;28;20561;-92
2021/03/19 11:14:10;;;;;;;7.87;5.60;;;4.20;99.90;;;;;;4928408;28;20449;-89
2021/03/19 11:16:38;;;;;;;7.40;6.23;;;4.30;99.90;;;;;;4923031;28;20595;-89
2021/03/19 11:19:08;;;;;;;7.53;5.83;;;3.60;99.90;;;;;;4897852;28;20469;-89
2021/03/19 11:21:44;;;;;;;7.20;5.80;;;3.80;99.90;;;;;;4919212;28;20514;-90
2021/03/19 11:24:23;;;;;;;8.40;5.47;;;3.70;99.90;;;;;;4928972;28;20521;-89
2021/03/19 11:27:13;;;;;;;9.50;5.60;;;3.80;99.90;;;;;;4918718;28;20453;-91
2021/03/19 11:29:42;;;;;;;7.00;5.40;;;3.90;99.90;;;;;;4920327;28;20517;-91
2021/03/19 11:32:27;;;;;;;6.03;4.87;;;4.20;99.90;;;;;;4922311;28;20523;-90
2021/03/19 11:34:56;;;;;;;5.57;4.43;;;4.30;99.90;;;;;;4917702;28;20460;-92
2021/03/19 11:37:36;;;;;;;6.63;5.00;;;3.80;99.90;;;;;;4920779;28;20975;-91
2021/03/19 11:40:08;;;;;;;5.43;4.80;;;3.60;99.90;;;;;;4918755;28;20449;-89
2021/03/19 11:42:41;;;;;;;5.40;4.70;;;3.90;99.90;;;;;;4914435;28;20862;-91
2021/03/19 11:45:10;;;;;;;4.80;4.30;;;3.40;99.90;;;;;;4917964;28;20543;-90
2021/03/19 11:47:39;;;;;;;4.03;3.63;;;3.60;99.90;;;;;;4920349;28;20465;-90
2021/03/19 11:50:26;;;;;;;4.20;3.70;;;4.70;99.90;;;;;;4922321;28;20461;-91
2021/03/19 11:52:55;;;;;;;7.37;4.30;;;3.60;99.90;;;;;;4920872;28;20518;-92
2021/03/19 11:55:26;;;;;;;4.93;4.40;;;4.10;99.90;;;;;;4919360;28;20484;-91
2021/03/19 11:57:53;;;;;;;4.97;4.03;;;3.80;99.90;;;;;;4938082;28;20538;-92
2021/03/19 12:00:21;;;;;;;4.60;3.17;;;3.50;99.90;;;;;;4939094;28;20449;-91
2021/03/19 12:02:50;;;;;;;5.80;5.20;;;3.90;99.90;;;;;;4938252;28;20468;-89
2021/03/19 12:05:19;;;;;;;6.07;4.73;;;4.20;99.90;;;;;;4937365;28;20488;-88
2021/03/19 12:07:45;;;;;;;5.70;4.90;;;;;;;;;;4937710;28;20452;-91
2021/03/19 12:10:15;;;;;;;5.27;4.43;;;4.10;99.90;;;;;;4936403;28;20467;-88
2021/03/19 12:12:42;;;;;;;5.97;5.30;;;3.80;99.90;;;;;;4942744;28;20500;-88
2021/03/19 12:15:14;;;;;;;5.80;4.40;;;3.40;99.90;;;;;;4937661;28;20879;-90
2021/03/19 12:17:40;;;;;;;7.57;5.60;;;;;;;;;;4934702;28;20448;-90
2021/03/19 12:20:07;;;;;;;9.90;6.33;;;3.60;99.90;;;;;;4936176;28;20460;-91
2021/03/19 12:22:34;;;;;;;7.00;5.67;;;;;;;;;;4935491;28;20456;-89
2021/03/19 12:25:15;;;;;;;7.60;5.60;;;3.70;99.90;;;;;;4935764;28;20460;-92
2021/03/19 12:27:43;;;;;;;7.70;6.20;;;4.00;99.90;;;;;;4936171;28;20957;-90
2021/03/19 12:30:11;;;;;;;9.70;7.00;;;4.20;99.90;;;;;;4938559;29;20458;-91
2021/03/19 12:32:37;;;;;;;8.10;6.50;;;3.70;99.90;;;;;;4957736;22;20495;-93
2021/03/19 12:35:04;;;;;;;6.80;5.80;;;3.60;99.90;;;;;;4957353;28;20460;-90
2021/03/19 12:37:31;;;;;;;7.07;5.97;;;;;;;;;;4957245;28;20560;-87
2021/03/19 12:39:59;;;;;;;8.23;6.00;;;3.60;99.90;;;;;;4955803;28;20479;-90
2021/03/19 12:42:30;;;;;;;6.43;5.10;;;3.30;99.90;;;;;;4960486;28;20451;-92
2021/03/19 12:44:58;;;;;;;8.40;6.10;;;3.10;99.90;;;;;;4959731;28;20443;-93
2021/03/19 12:47:25;;;;;;;9.40;6.53;;;;;;;;;;4952306;28;20447;-87
2021/03/19 12:49:52;;;;;;;9.83;7.60;;;3.40;99.90;;;;;;4955841;28;20463;-90
2021/03/19 12:52:18;;;;;;;10.50;7.27;;;;;;;;;;4951962;28;20491;-92
2021/03/19 12:54:44;;;;;;;13.73;9.50;;;2.70;99.90;;;;;;4954119;28;20874;-92
2021/03/19 12:57:14;;;;;;;13.83;9.23;;;;;;;;;;4956009;28;20442;-91
2021/03/19 12:59:40;;;;;;;13.20;9.20;;;;;;;;;;4958714;28;21013;-92
2021/03/19 13:02:08;;;;;;;12.53;8.73;;;2.80;99.90;;;;;;4959088;28;20471;-90
2021/03/19 13:04:34;;;;;;;12.90;9.00;;;2.70;99.90;;;;;;4962027;28;20478;-88
2021/03/19 13:07:07;;;;;;;16.00;9.73;;;2.80;99.90;;;;;;5005901;22;20490;-93
2021/03/19 13:09:36;;;;;;;14.53;9.87;;;2.80;99.90;;;;;;4975261;28;20450;-95
2021/03/19 13:12:11;;;;;;;16.43;9.30;;;2.60;99.90;;;;;;4990071;28;20482;-91
2021/03/19 13:14:42;;;;;;;17.40;11.20;;;;;;;;;;4986030;28;20460;-91
2021/03/19 13:17:10;;;;;;;18.17;10.60;;;2.70;99.90;;;;;;4979801;28;20917;-93
2021/03/19 13:19:42;;;;;;;23.80;12.63;;;;;;;;;;4978033;28;20496;-90
2021/03/19 13:22:11;;;;;;;16.10;10.43;;;2.60;99.90;;;;;;4981394;28;20434;-90
2021/03/19 13:24:39;;;;;;;17.90;11.67;;;;;;;;;;4983375;28;20453;-93
2021/03/19 13:27:06;;;;;;;15.70;10.53;;;2.60;99.90;;;;;;4979355;28;20439;-90
2021/03/19 13:29:32;;;;;;;15.80;11.10;;;2.50;99.90;;;;;;4994095;28;20453;-92
2021/03/19 13:31:58;;;;;;;17.13;10.40;;;2.80;99.90;;;;;;4985192;28;20477;-90
2021/03/19 13:34:26;;;;;;;16.60;10.60;;;2.50;99.90;;;;;;4960259;28;20945;-93
2021/03/19 13:36:53;;;;;;;14.57;10.90;;;;;;;;;;4950970;28;20971;-92
2021/03/19 13:39:21;;;;;;;19.37;12.33;;;;;;;;;;4983356;28;20832;-90
2021/03/19 13:41:50;;;;;;;18.87;12.97;;;2.70;99.90;;;;;;4993646;28;20466;-92